Queen Of Surrey — VG8177 — position and weather

sailwx.info

Track history (hours):
 
Tides and Currents Weather Stations Pressure Air Temp Water Temp Dewpoint Dewpoint Depression Visibility Wind Speed Wind Dir Waves Ship Positions

Queen Of Surrey

Last reported at 2018-Apr-20 06:59 UTC. Time now 2018-Apr-20 07:03 UTC.
Position N 49°26' W 123°28'.

Length 140 m; draft 6 m.

Type: Passenger vessel. MMSI: 316001262.

Date/timePositionNaut miles runAvg speedWind from/ knotsBaromVisibWave heightAir tempDewpointWater temp
2018-Apr-20 06:59N 49°26' W 123°28'1 1.1
2018-Apr-20 06:30N 49°26' W 123°28'815.9
2018-Apr-20 06:00N 49°23' W 123°16'0 0.1
2018-Apr-20 05:30N 49°23' W 123°16'816.9
2018-Apr-20 05:00N 49°18' W 123°27'1020.0
2018-Apr-20 04:29N 49°15' W 123°42'10 8.6
2018-Apr-20 03:23N 49°12' W 123°56'719.3
2018-Apr-20 03:00N 49°15' W 123°46'1019.9
2018-Apr-20 02:30N 49°18' W 123°32'918.9
2018-Apr-20 02:00N 49°22' W 123°19'2 2.4
2018-Apr-20 01:20N 49°23' W 123°16'514.2
2018-Apr-20 01:00N 49°25' W 123°22'4 7.9
2018-Apr-20 00:30N 49°26' W 123°28'5 9.4
2018-Apr-20 00:00N 49°25' W 123°21'4 7.4
2018-Apr-19 23:26N 49°23' W 123°16'3 7.7
2018-Apr-19 22:59N 49°26' W 123°19'613.1
2018-Apr-19 22:30N 49°26' W 123°28'1 1.8
2018-Apr-19 22:00N 49°26' W 123°27'815.5
2018-Apr-19 21:30N 49°23' W 123°16'0 0.7
2018-Apr-19 21:00N 49°23' W 123°16'611.6
2018-Apr-19 20:28N 49°25' W 123°25'2 5.0
2018-Apr-19 20:00N 49°26' W 123°28'4 7.7
2018-Apr-19 19:30N 49°25' W 123°23'5 8.8
2018-Apr-19 18:57N 49°23' W 123°16'3 6.7
2018-Apr-19 18:28N 49°26' W 123°18'714.3
2018-Apr-19 18:00N 49°26' W 123°28'0 0.5
2018-Apr-19 17:30N 49°26' W 123°28'815.6
2018-Apr-19 16:59N 49°23' W 123°16'1 1.1
2018-Apr-19 16:22N 49°23' W 123°16'412.2
2018-Apr-19 16:00N 49°25' W 123°21'5 9.1
2018-Apr-19 15:30N 49°26' W 123°28'1 2.7
2018-Apr-19 15:00N 49°25' W 123°27'711.5
2018-Apr-19 14:23N 49°23' W 123°16'0 0.3
2018-Apr-19 14:00N 49°23' W 123°16'714.2
2018-Apr-19 13:28N 49°25' W 123°27'1 1.7
2018-Apr-19 12:47N 49°26' W 123°28'0 0.0
2018-Apr-19 12:30N 49°26' W 123°28'0 0.0
2018-Apr-19 11:54N 49°26' W 123°28'0 0.0
2018-Apr-19 11:30N 49°26' W 123°28'0 0.0
2018-Apr-19 10:57N 49°26' W 123°28'0 0.0
2018-Apr-19 09:51N 49°26' W 123°28'0 0.0
2018-Apr-19 09:30N 49°26' W 123°28'0 0.0
2018-Apr-19 09:00N 49°26' W 123°28'0 0.0
2018-Apr-19 07:57N 49°26' W 123°28'0 0.0
2018-Apr-19 07:27N 49°26' W 123°28'0 0.0
2018-Apr-19 07:00N 49°26' W 123°28'1 1.0
2018-Apr-19 06:30N 49°26' W 123°28'815.0
2018-Apr-19 06:00N 49°24' W 123°17'1 1.7
2018-Apr-19 05:29N 49°23' W 123°16'714.6
2018-Apr-19 05:00N 49°19' W 123°25'918.4
2018-Apr-19 04:30N 49°16' W 123°38'1018.6
2018-Apr-19 03:58N 49°13' W 123°53'2 3.5
2018-Apr-19 03:15N 49°12' W 123°57'416.9
2018-Apr-19 02:59N 49°14' W 123°51'918.4
2018-Apr-19 02:29N 49°17' W 123°37'918.6
2018-Apr-19 02:00N 49°19' W 123°24'6 6.3
2018-Apr-19 01:03N 49°23' W 123°16'113.4
2018-Apr-19 00:57N 49°24' W 123°17'716.4
2018-Apr-19 00:30N 49°26' W 123°27'0 0.2
2018-Apr-18 23:57N 49°26' W 123°27'716.3
2018-Apr-18 23:30N 49°24' W 123°17'1 2.1
2018-Apr-18 23:00N 49°23' W 123°16'510.7
2018-Apr-18 22:30N 49°25' W 123°23'3 6.2
2018-Apr-18 21:57N 49°26' W 123°28'511.2
2018-Apr-18 21:31N 49°25' W 123°21'4 6.8
2018-Apr-18 20:54N 49°23' W 123°16'3 8.6
2018-Apr-18 20:30N 49°26' W 123°18'613.2
2018-Apr-18 20:00N 49°26' W 123°28'1 2.0
2018-Apr-18 19:30N 49°25' W 123°27'8 7.5
2018-Apr-18 18:30N 49°23' W 123°16'715.1
2018-Apr-18 18:01N 49°25' W 123°27'1 2.3
2018-Apr-18 17:30N 49°26' W 123°28'712.8
2018-Apr-18 16:58N 49°25' W 123°18'3 4.9
2018-Apr-18 16:20N 49°23' W 123°16'412.1
2018-Apr-18 15:59N 49°25' W 123°21'510.0
2018-Apr-18 15:30N 49°26' W 123°28'2 3.3
2018-Apr-18 14:59N 49°25' W 123°26'710.5
2018-Apr-18 14:20N 49°23' W 123°16'0 1.0
2018-Apr-18 13:58N 49°23' W 123°16'715.2
2018-Apr-18 13:30N 49°25' W 123°27'2 2.9
2018-Apr-18 12:59N 49°26' W 123°28'0 0.0
2018-Apr-18 11:10N 49°26' W 123°28'0 0.0
2018-Apr-18 10:49N 49°26' W 123°28'0 0.0
2018-Apr-18 10:19N 49°26' W 123°28'0 0.0
2018-Apr-18 09:43N 49°26' W 123°28'0 0.0
2018-Apr-18 09:28N 49°26' W 123°28'0 0.0
2018-Apr-18 08:52N 49°26' W 123°28'0 0.0
2018-Apr-18 08:16N 49°26' W 123°28'0 0.0
2018-Apr-18 07:55N 49°26' W 123°28'0 0.0
2018-Apr-18 07:25N 49°26' W 123°28'0 0.0
2018-Apr-18 06:58N 49°26' W 123°28'1 1.1
2018-Apr-18 06:30N 49°26' W 123°28'814.8
2018-Apr-18 05:59N 49°23' W 123°17'1 1.5
2018-Apr-18 05:30N 49°23' W 123°16'713.9
2018-Apr-18 05:00N 49°19' W 123°25'918.2
2018-Apr-18 04:30N 49°16' W 123°39'1210.1
2018-Apr-18 03:15N 49°12' W 123°57'416.7
2018-Apr-18 02:59N 49°14' W 123°51'918.4
2018-Apr-18 02:30N 49°17' W 123°38'918.5
2018-Apr-18 02:00N 49°19' W 123°24'6 6.3
2018-Apr-18 01:03N 49°23' W 123°16'112.2
2018-Apr-18 00:59N 49°23' W 123°16'714.9
2018-Apr-18 00:31N 49°25' W 123°27'1 2.2
2018-Apr-18 00:00N 49°26' W 123°28'713.9
2018-Apr-17 23:29N 49°25' W 123°17'2 4.7
2018-Apr-17 23:00N 49°23' W 123°16'611.5
2018-Apr-17 22:30N 49°25' W 123°24'3 5.7
2018-Apr-17 22:00N 49°26' W 123°28'510.3
2018-Apr-17 21:30N 49°26' W 123°20'4 4.7
2018-Apr-17 20:42N 49°23' W 123°16'415.2
2018-Apr-17 20:27N 49°26' W 123°20'612.6
2018-Apr-17 20:00N 49°26' W 123°28'0 0.8
2018-Apr-17 19:30N 49°26' W 123°28'815.5
2018-Apr-17 19:00N 49°23' W 123°17'1 1.2
2018-Apr-17 18:28N 49°23' W 123°16'714.8
2018-Apr-17 18:00N 49°25' W 123°26'2 3.7
2018-Apr-17 17:30N 49°26' W 123°28'712.6
2018-Apr-17 16:56N 49°25' W 123°17'2 3.2
2018-Apr-17 16:17N 49°23' W 123°16'414.2
2018-Apr-17 16:00N 49°25' W 123°21'5 9.7
2018-Apr-17 15:30N 49°26' W 123°28'2 3.7
2018-Apr-17 15:00N 49°25' W 123°26'712.4
2018-Apr-17 14:28N 49°23' W 123°16'0 0.1
2018-Apr-17 13:59N 49°23' W 123°16'713.7
2018-Apr-17 13:30N 49°25' W 123°25'2 3.9
2018-Apr-17 13:00N 49°26' W 123°28'0 0.0
2018-Apr-17 12:02N 49°26' W 123°28'0 0.0
2018-Apr-17 11:56N 49°26' W 123°28'0 0.0
2018-Apr-17 11:26N 49°26' W 123°28'0 0.0
2018-Apr-17 10:44N 49°26' W 123°28'0 0.0
2018-Apr-17 10:26N 49°26' W 123°28'0 0.0
2018-Apr-17 09:20N 49°26' W 123°28'0 0.0
2018-Apr-17 08:44N 49°26' W 123°28'0 0.0
2018-Apr-17 08:20N 49°26' W 123°28'0 0.0
2018-Apr-17 07:56N 49°26' W 123°28'0 0.0
2018-Apr-17 07:26N 49°26' W 123°28'0 0.0
2018-Apr-17 06:56N 49°26' W 123°28'0 0.7
2018-Apr-17 06:30N 49°26' W 123°28'815.4
2018-Apr-17 05:59N 49°23' W 123°17'1 1.4
2018-Apr-17 05:30N 49°23' W 123°16'714.3
2018-Apr-17 05:00N 49°19' W 123°25'1018.3
2018-Apr-17 04:29N 49°16' W 123°39'12 9.1
2018-Apr-17 03:13N 49°12' W 123°56'417.6
2018-Apr-17 03:00N 49°14' W 123°51'918.6
2018-Apr-17 02:30N 49°17' W 123°38'918.7
2018-Apr-17 02:01N 49°19' W 123°24'6 7.0
2018-Apr-17 01:10N 49°23' W 123°16'316.0
2018-Apr-17 00:58N 49°26' W 123°18'714.6
2018-Apr-17 00:30N 49°26' W 123°28'1 2.1
2018-Apr-17 00:00N 49°26' W 123°27'7 7.2
2018-Apr-16 22:59N 49°23' W 123°16'816.4
2018-Apr-16 22:30N 49°26' W 123°28'0 0.9
2018-Apr-16 22:00N 49°26' W 123°28'814.0
2018-Apr-16 21:26N 49°24' W 123°17'1 2.4
2018-Apr-16 20:58N 49°23' W 123°16'4 8.3
2018-Apr-16 20:30N 49°26' W 123°20'510.9
2018-Apr-16 20:00N 49°26' W 123°28'1 2.5
2018-Apr-16 19:30N 49°25' W 123°27'710.7
2018-Apr-16 18:49N 49°23' W 123°16'0 0.8
2018-Apr-16 18:31N 49°23' W 123°16'815.4
2018-Apr-16 18:00N 49°26' W 123°27'1 1.4
2018-Apr-16 17:28N 49°26' W 123°28'713.5
2018-Apr-16 16:57N 49°25' W 123°18'2 3.3
2018-Apr-16 16:14N 49°23' W 123°16'415.6
2018-Apr-16 16:00N 49°26' W 123°20'510.3
2018-Apr-16 15:30N 49°26' W 123°28'1 2.7
2018-Apr-16 15:00N 49°25' W 123°27'711.5
2018-Apr-16 14:22N 49°23' W 123°16'0 0.9
2018-Apr-16 13:57N 49°23' W 123°16'715.1
2018-Apr-16 13:30N 49°25' W 123°26'2 3.4
2018-Apr-16 12:59N 49°26' W 123°28'0 0.0
2018-Apr-16 12:16N 49°26' W 123°28'0 0.0
2018-Apr-16 11:46N 49°26' W 123°28'0 0.0
2018-Apr-16 11:22N 49°26' W 123°28'0 0.0
2018-Apr-16 10:58N 49°26' W 123°28'0 0.0
2018-Apr-16 10:25N 49°26' W 123°28'0 0.0
2018-Apr-16 09:58N 49°26' W 123°28'0 0.0
2018-Apr-16 09:16N 49°26' W 123°28'0 0.0
2018-Apr-16 08:55N 49°26' W 123°28'0 0.0
2018-Apr-16 08:28N 49°26' W 123°28'0 0.0
2018-Apr-16 07:55N 49°26' W 123°28'0 0.0
2018-Apr-16 07:22N 49°26' W 123°28'0 0.0
2018-Apr-16 06:57N 49°26' W 123°28'511.7
2018-Apr-16 06:30N 49°26' W 123°20'4 6.5
2018-Apr-16 05:54N 49°23' W 123°16'512.5
2018-Apr-16 05:30N 49°19' W 123°22'1019.9
2018-Apr-16 05:00N 49°16' W 123°36'1220.2
2018-Apr-16 04:24N 49°13' W 123°54'1 1.7
2018-Apr-16 03:33N 49°12' W 123°56'216.1
2018-Apr-16 03:25N 49°13' W 123°54'818.7
2018-Apr-16 02:59N 49°16' W 123°42'918.8
2018-Apr-16 02:30N 49°18' W 123°29'918.2
2018-Apr-16 02:01N 49°23' W 123°17'1 0.8
2018-Apr-16 01:15N 49°23' W 123°16'414.0
2018-Apr-16 00:58N 49°25' W 123°20'510.3
2018-Apr-16 00:29N 49°26' W 123°28'1 2.6
2018-Apr-16 00:00N 49°25' W 123°27'7 9.6
2018-Apr-15 23:14N 49°23' W 123°16'0 0.9
2018-Apr-15 23:00N 49°23' W 123°16'815.9
2018-Apr-15 22:30N 49°26' W 123°27'1 1.2
2018-Apr-15 22:00N 49°26' W 123°28'510.6
2018-Apr-15 21:30N 49°26' W 123°20'4 4.4
2018-Apr-15 20:41N 49°23' W 123°16'415.9
2018-Apr-15 20:25N 49°25' W 123°22'410.7
2018-Apr-15 20:01N 49°26' W 123°28'1 1.9
2018-Apr-15 19:30N 49°26' W 123°27'8 7.7
2018-Apr-15 18:31N 49°23' W 123°16'111.5
2018-Apr-15 18:28N 49°23' W 123°16'816.1
2018-Apr-15 18:00N 49°26' W 123°27'1 1.6
2018-Apr-15 17:30N 49°26' W 123°28'612.2
2018-Apr-15 17:00N 49°26' W 123°19'3 5.1
2018-Apr-15 16:19N 49°23' W 123°16'412.7
2018-Apr-15 15:59N 49°25' W 123°21'510.0
2018-Apr-15 15:30N 49°26' W 123°28'2 3.3
2018-Apr-15 15:00N 49°25' W 123°26'713.0
2018-Apr-15 14:28N 49°23' W 123°16'0 0.1
2018-Apr-15 14:00N 49°23' W 123°16'713.2
2018-Apr-15 13:30N 49°25' W 123°25'2 4.0
2018-Apr-15 13:00N 49°26' W 123°28'0 0.0
2018-Apr-15 12:27N 49°26' W 123°28'0 0.0
2018-Apr-15 11:44N 49°26' W 123°28'0 0.0
2018-Apr-15 11:29N 49°26' W 123°28'0 0.0
2018-Apr-15 10:56N 49°26' W 123°28'0 0.0
2018-Apr-15 09:38N 49°26' W 123°28'0 0.0
2018-Apr-15 09:11N 49°26' W 123°28'0 0.0
2018-Apr-15 08:53N 49°26' W 123°28'0 0.0
2018-Apr-15 08:29N 49°26' W 123°28'0 0.0
2018-Apr-15 07:05N 49°26' W 123°28'0 0.0
2018-Apr-15 06:47N 49°26' W 123°28'1 3.7
2018-Apr-15 06:31N 49°26' W 123°27'713.7
2018-Apr-15 06:00N 49°24' W 123°17'1 1.7
2018-Apr-15 05:28N 49°23' W 123°16'715.7
2018-Apr-15 05:00N 49°19' W 123°25'917.9
2018-Apr-15 04:30N 49°16' W 123°38'918.3
2018-Apr-15 03:59N 49°14' W 123°53'3 4.6
2018-Apr-15 03:15N 49°12' W 123°57'417.9
2018-Apr-15 03:00N 49°14' W 123°51'1019.1
2018-Apr-15 02:30N 49°17' W 123°37'918.6
2018-Apr-15 02:00N 49°19' W 123°23'610.4
2018-Apr-15 01:28N 49°23' W 123°16'1 2.7
2018-Apr-15 00:58N 49°24' W 123°16'816.6
2018-Apr-15 00:30N 49°26' W 123°28'0 0.7
2018-Apr-15 00:00N 49°26' W 123°28'814.2
2018-Apr-14 23:29N 49°24' W 123°17'2 3.0
2018-Apr-14 22:55N 49°23' W 123°16'512.5
2018-Apr-14 22:28N 49°25' W 123°24'3 6.2
2018-Apr-14 21:59N 49°26' W 123°28'4 8.8
2018-Apr-14 21:28N 49°25' W 123°22'4 5.6
2018-Apr-14 20:41N 49°23' W 123°16'316.0
2018-Apr-14 20:30N 49°25' W 123°18'714.1
2018-Apr-14 20:00N 49°26' W 123°28'1 1.5
2018-Apr-14 19:29N 49°26' W 123°27'715.5
2018-Apr-14 19:00N 49°24' W 123°17'1 1.6
2018-Apr-14 18:30N 49°23' W 123°16'714.0
2018-Apr-14 18:00N 49°25' W 123°26'2 3.5
2018-Apr-14 17:30N 49°26' W 123°28'612.4
2018-Apr-14 17:00N 49°26' W 123°19'3 4.9
2018-Apr-14 16:19N 49°23' W 123°16'412.6
2018-Apr-14 16:00N 49°26' W 123°20'5 8.5
2018-Apr-14 15:24N 49°26' W 123°28'2 4.4
2018-Apr-14 15:00N 49°25' W 123°26'712.4
2018-Apr-14 14:27N 49°23' W 123°16'0 0.5
2018-Apr-14 13:59N 49°23' W 123°16'613.2
2018-Apr-14 13:30N 49°25' W 123°25'2 3.3
2018-Apr-14 12:52N 49°26' W 123°28'0 0.0
2018-Apr-14 12:21N 49°26' W 123°28'0 0.0
2018-Apr-14 12:00N 49°26' W 123°28'0 0.0
2018-Apr-14 10:21N 49°26' W 123°28'0 0.0
2018-Apr-14 10:00N 49°26' W 123°28'0 0.0
2018-Apr-14 09:27N 49°26' W 123°28'0 0.0
2018-Apr-14 08:51N 49°26' W 123°28'0 0.0
2018-Apr-14 08:21N 49°26' W 123°28'0 0.0
2018-Apr-14 07:57N 49°26' W 123°28'0 0.0
2018-Apr-14 07:27N 49°26' W 123°28'0 0.0
2018-Apr-14 06:51N 49°26' W 123°28'1 2.8
2018-Apr-14 06:30N 49°26' W 123°27'714.4
2018-Apr-14 06:00N 49°23' W 123°16'0 0.6
2018-Apr-14 05:27N 49°23' W 123°16'715.9
2018-Apr-14 05:00N 49°19' W 123°25'1018.4
2018-Apr-14 04:29N 49°16' W 123°39'1018.5
2018-Apr-14 03:56N 49°13' W 123°54'0 0.2
2018-Apr-14 03:10N 49°13' W 123°54'518.7
2018-Apr-14 02:56N 49°15' W 123°48'818.9
2018-Apr-14 02:30N 49°18' W 123°36'919.1
2018-Apr-14 02:01N 49°20' W 123°22'5 8.0
2018-Apr-14 01:24N 49°23' W 123°16'1 3.0
2018-Apr-14 01:00N 49°24' W 123°16'816.3
2018-Apr-14 00:31N 49°26' W 123°28'0 0.2
2018-Apr-14 00:00N 49°26' W 123°28'815.4
2018-Apr-13 23:29N 49°24' W 123°17'1 1.2
2018-Apr-13 22:53N 49°23' W 123°16'514.0
2018-Apr-13 22:30N 49°25' W 123°24'3 5.5
2018-Apr-13 21:56N 49°26' W 123°28'614.1
2018-Apr-13 21:29N 49°26' W 123°19'3 4.0
2018-Apr-13 20:42N 49°23' W 123°16'414.0
2018-Apr-13 20:26N 49°26' W 123°20'612.8
2018-Apr-13 20:00N 49°26' W 123°28'0 0.6
2018-Apr-13 19:30N 49°26' W 123°28'815.6
2018-Apr-13 19:00N 49°23' W 123°17'1 1.9
2018-Apr-13 18:31N 49°23' W 123°16'714.6
2018-Apr-13 18:00N 49°25' W 123°27'1 2.3
2018-Apr-13 17:30N 49°26' W 123°28'611.9
2018-Apr-13 16:59N 49°26' W 123°19'3 5.3
2018-Apr-13 16:20N 49°23' W 123°16'512.2
2018-Apr-13 15:56N 49°25' W 123°22'4 9.3
2018-Apr-13 15:30N 49°26' W 123°28'2 3.5
2018-Apr-13 14:59N 49°25' W 123°26'7 9.4
2018-Apr-13 14:16N 49°23' W 123°16'0 0.5
2018-Apr-13 13:59N 49°23' W 123°16'713.9
2018-Apr-13 13:30N 49°25' W 123°26'2 3.7
2018-Apr-13 13:00N 49°26' W 123°28'0 0.0
2018-Apr-13 12:27N 49°26' W 123°28'0 0.0
2018-Apr-13 11:13N 49°26' W 123°28'0 0.0
2018-Apr-13 10:58N 49°26' W 123°28'0 0.0
2018-Apr-13 10:07N 49°26' W 123°28'0 0.0
2018-Apr-13 09:52N 49°26' W 123°28'0 0.0
2018-Apr-13 09:28N 49°26' W 123°28'0 0.0
2018-Apr-13 08:58N 49°26' W 123°28'0 0.0
2018-Apr-13 08:28N 49°26' W 123°28'0 0.0
2018-Apr-13 07:58N 49°26' W 123°28'0 0.0
2018-Apr-13 07:28N 49°26' W 123°28'0 0.0
2018-Apr-13 06:55N 49°26' W 123°28'1 2.2
2018-Apr-13 06:30N 49°26' W 123°27'714.3
2018-Apr-13 06:00N 49°23' W 123°17'1 1.5
2018-Apr-13 05:28N 49°23' W 123°16'715.5
2018-Apr-13 05:00N 49°19' W 123°26'1019.5
2018-Apr-13 04:30N 49°15' W 123°40'9 7.4
2018-Apr-13 03:15N 49°14' W 123°54'518.8
2018-Apr-13 02:59N 49°15' W 123°46'918.9
2018-Apr-13 02:30N 49°17' W 123°33'918.5
2018-Apr-13 02:00N 49°21' W 123°20'3 4.0
2018-Apr-13 01:18N 49°23' W 123°16'411.7
2018-Apr-13 00:57N 49°25' W 123°21'510.9
2018-Apr-13 00:30N 49°26' W 123°28'3 6.7
2018-Apr-12 23:59N 49°25' W 123°23'5 6.0
2018-Apr-12 23:07N 49°23' W 123°16'1 4.5
2018-Apr-12 22:59N 49°23' W 123°16'816.0
2018-Apr-12 22:30N 49°26' W 123°27'1 1.3
2018-Apr-12 22:00N 49°26' W 123°28'612.3
2018-Apr-12 21:30N 49°26' W 123°19'4 7.1
2018-Apr-12 21:00N 49°23' W 123°16'4 6.9
2018-Apr-12 20:29N 49°26' W 123°19'612.7
2018-Apr-12 20:00N 49°26' W 123°28'0 0.8
2018-Apr-12 19:30N 49°26' W 123°28'815.8
2018-Apr-12 19:00N 49°23' W 123°17'1 1.1
2018-Apr-12 18:28N 49°23' W 123°16'715.3
2018-Apr-12 18:00N 49°25' W 123°26'1 2.8
2018-Apr-12 17:30N 49°26' W 123°28'712.7
2018-Apr-12 16:58N 49°26' W 123°18'3 4.9
2018-Apr-12 16:19N 49°23' W 123°16'412.7
2018-Apr-12 16:00N 49°26' W 123°20'510.5
2018-Apr-12 15:30N 49°26' W 123°28'2 3.2
2018-Apr-12 15:00N 49°25' W 123°26'710.3
2018-Apr-12 14:20N 49°23' W 123°16'0 1.3
2018-Apr-12 13:57N 49°23' W 123°16'714.3
2018-Apr-12 13:29N 49°25' W 123°26'2 3.8
2018-Apr-12 13:00N 49°26' W 123°28'0 0.1
2018-Apr-12 12:30N 49°26' W 123°28'0 0.0
2018-Apr-12 11:44N 49°26' W 123°28'0 0.0
2018-Apr-12 11:17N 49°26' W 123°28'0 0.0
2018-Apr-12 10:53N 49°26' W 123°28'0 0.0
2018-Apr-12 10:23N 49°26' W 123°28'0 0.0
2018-Apr-12 09:44N 49°26' W 123°28'0 0.0
2018-Apr-12 09:29N 49°26' W 123°28'0 0.0
2018-Apr-12 08:53N 49°26' W 123°28'0 0.0
2018-Apr-12 08:23N 49°26' W 123°28'0 0.0
2018-Apr-12 07:59N 49°26' W 123°28'0 0.0
2018-Apr-12 07:05N 49°26' W 123°28'0 0.0
2018-Apr-12 06:59N 49°26' W 123°28'1 2.1
2018-Apr-12 06:30N 49°26' W 123°27'714.5
2018-Apr-12 06:00N 49°23' W 123°16'0 0.8
2018-Apr-12 05:28N 49°23' W 123°16'714.4
2018-Apr-12 05:00N 49°19' W 123°24'918.4
2018-Apr-12 04:30N 49°16' W 123°38'1018.7
2018-Apr-12 04:00N 49°14' W 123°52'1 1.4
2018-Apr-12 03:07N 49°13' W 123°54'318.1
2018-Apr-12 02:58N 49°14' W 123°50'818.4
2018-Apr-12 02:30N 49°17' W 123°38'1018.5
2018-Apr-12 01:59N 49°19' W 123°23'6 6.5
2018-Apr-12 01:08N 49°23' W 123°16'213.7
2018-Apr-12 01:00N 49°24' W 123°17'815.6
2018-Apr-12 00:30N 49°26' W 123°28'1 1.1
2018-Apr-12 00:00N 49°26' W 123°27'816.0
2018-Apr-11 23:30N 49°23' W 123°16'0 0.2
2018-Apr-11 22:54N 49°23' W 123°16'614.2
2018-Apr-11 22:29N 49°25' W 123°24'3 4.3
2018-Apr-11 21:53N 49°26' W 123°28'615.4
2018-Apr-11 21:29N 49°26' W 123°19'3 3.9
2018-Apr-11 20:40N 49°23' W 123°16'318.2
2018-Apr-11 20:30N 49°25' W 123°18'713.6
2018-Apr-11 20:01N 49°26' W 123°28'1 1.1
2018-Apr-11 19:30N 49°26' W 123°27'8 7.8
2018-Apr-11 18:29N 49°23' W 123°16'714.4
2018-Apr-11 18:00N 49°25' W 123°26'2 3.3
2018-Apr-11 17:30N 49°26' W 123°28'713.6
2018-Apr-11 17:00N 49°26' W 123°18'3 5.0
2018-Apr-11 16:21N 49°23' W 123°16'412.4
2018-Apr-11 16:00N 49°25' W 123°21'5 9.4
2018-Apr-11 15:31N 49°26' W 123°28'2 4.1
2018-Apr-11 14:58N 49°25' W 123°25'6 6.4
2018-Apr-11 13:59N 49°23' W 123°16'613.4
2018-Apr-11 13:30N 49°25' W 123°25'2 2.7
2018-Apr-11 12:45N 49°26' W 123°28'0 0.0
2018-Apr-11 12:15N 49°26' W 123°28'0 0.0
2018-Apr-11 11:48N 49°26' W 123°28'0 0.0
2018-Apr-11 11:27N 49°26' W 123°28'0 0.0
2018-Apr-11 10:54N 49°26' W 123°28'0 0.0
2018-Apr-11 10:27N 49°26' W 123°28'0 0.0
2018-Apr-11 10:00N 49°26' W 123°28'0 0.0
2018-Apr-11 09:00N 49°26' W 123°28'0 0.0
2018-Apr-11 08:27N 49°26' W 123°28'0 0.0
2018-Apr-11 08:00N 49°26' W 123°28'0 0.0
2018-Apr-11 07:24N 49°26' W 123°28'0 0.0
2018-Apr-11 06:57N 49°26' W 123°28'1 1.9
2018-Apr-11 06:30N 49°26' W 123°27'714.7
2018-Apr-11 06:00N 49°23' W 123°16'1 1.1
2018-Apr-11 05:29N 49°23' W 123°16'714.9
2018-Apr-11 05:00N 49°19' W 123°25'918.2
2018-Apr-11 04:30N 49°16' W 123°38'1310.3
2018-Apr-11 03:16N 49°12' W 123°57'517.0
2018-Apr-11 03:00N 49°14' W 123°51'918.6
2018-Apr-11 02:30N 49°17' W 123°38'918.8
2018-Apr-11 02:00N 49°19' W 123°23'6 6.3
2018-Apr-11 01:06N 49°23' W 123°16'110.0
2018-Apr-11 01:00N 49°24' W 123°16'816.0
2018-Apr-11 00:30N 49°26' W 123°28'0 0.3
2018-Apr-11 00:00N 49°26' W 123°28'815.6
2018-Apr-10 23:30N 49°24' W 123°17'1 1.2
2018-Apr-10 22:54N 49°23' W 123°16'613.8
2018-Apr-10 22:29N 49°25' W 123°24'3 4.3
2018-Apr-10 21:52N 49°26' W 123°28'614.5
2018-Apr-10 21:29N 49°26' W 123°20'4 8.2
2018-Apr-10 21:00N 49°23' W 123°16'4 7.3
2018-Apr-10 20:29N 49°26' W 123°20'611.9
2018-Apr-10 20:00N 49°26' W 123°28'1 1.8
2018-Apr-10 19:30N 49°26' W 123°27'715.1
2018-Apr-10 19:00N 49°23' W 123°16'0 0.9
2018-Apr-10 18:30N 49°23' W 123°16'714.7
2018-Apr-10 18:00N 49°25' W 123°27'1 2.4
2018-Apr-10 17:30N 49°26' W 123°28'612.8
2018-Apr-10 17:00N 49°26' W 123°18'3 4.9
2018-Apr-10 16:20N 49°23' W 123°16'412.9
2018-Apr-10 16:00N 49°26' W 123°21'5 9.3
2018-Apr-10 15:29N 49°26' W 123°28'2 3.8
2018-Apr-10 15:00N 49°25' W 123°26'712.3
2018-Apr-10 14:28N 49°23' W 123°16'0 0.2
2018-Apr-10 13:56N 49°23' W 123°16'715.1
2018-Apr-10 13:30N 49°25' W 123°26'2 3.5
2018-Apr-10 12:59N 49°26' W 123°28'0 0.0
2018-Apr-10 12:30N 49°26' W 123°28'0 0.0
2018-Apr-10 11:37N 49°26' W 123°28'0 0.0
2018-Apr-10 10:07N 49°26' W 123°28'0 0.0
2018-Apr-10 09:55N 49°26' W 123°28'0 0.0
2018-Apr-10 09:25N 49°26' W 123°28'0 0.0
2018-Apr-10 08:37N 49°26' W 123°28'0 0.0
2018-Apr-10 08:19N 49°26' W 123°28'0 0.0
2018-Apr-10 07:55N 49°26' W 123°28'0 0.0
2018-Apr-10 07:25N 49°26' W 123°28'  
Track history (hours):
 
Tides and Currents Weather Stations Pressure Air Temp Water Temp Dewpoint Dewpoint Depression Visibility Wind Speed Wind Dir Waves Ship Positions

Queen Of Surrey

Last reported at 2018-Apr-20 06:59 UTC. Time now 2018-Apr-20 07:03 UTC.
Position N 49°26' W 123°28'.

Length 140 m; draft 6 m.

Type: Passenger vessel. MMSI: 316001262.

Date/timePositionNaut miles runAvg speedWind from/ knotsBaromVisibWave heightAir tempDewpointWater temp
2018-Apr-20 06:59N 49°26' W 123°28'1 1.1
2018-Apr-20 06:30N 49°26' W 123°28'815.9
2018-Apr-20 06:00N 49°23' W 123°16'0 0.1
2018-Apr-20 05:30N 49°23' W 123°16'816.9
2018-Apr-20 05:00N 49°18' W 123°27'1020.0
2018-Apr-20 04:29N 49°15' W 123°42'10 8.6
2018-Apr-20 03:23N 49°12' W 123°56'719.3
2018-Apr-20 03:00N 49°15' W 123°46'1019.9
2018-Apr-20 02:30N 49°18' W 123°32'918.9
2018-Apr-20 02:00N 49°22' W 123°19'2 2.4
2018-Apr-20 01:20N 49°23' W 123°16'514.2
2018-Apr-20 01:00N 49°25' W 123°22'4 7.9
2018-Apr-20 00:30N 49°26' W 123°28'5 9.4
2018-Apr-20 00:00N 49°25' W 123°21'4 7.4
2018-Apr-19 23:26N 49°23' W 123°16'3 7.7
2018-Apr-19 22:59N 49°26' W 123°19'613.1
2018-Apr-19 22:30N 49°26' W 123°28'1 1.8
2018-Apr-19 22:00N 49°26' W 123°27'815.5
2018-Apr-19 21:30N 49°23' W 123°16'0 0.7
2018-Apr-19 21:00N 49°23' W 123°16'611.6
2018-Apr-19 20:28N 49°25' W 123°25'2 5.0
2018-Apr-19 20:00N 49°26' W 123°28'4 7.7
2018-Apr-19 19:30N 49°25' W 123°23'5 8.8
2018-Apr-19 18:57N 49°23' W 123°16'3 6.7
2018-Apr-19 18:28N 49°26' W 123°18'714.3
2018-Apr-19 18:00N 49°26' W 123°28'0 0.5
2018-Apr-19 17:30N 49°26' W 123°28'815.6
2018-Apr-19 16:59N 49°23' W 123°16'1 1.1
2018-Apr-19 16:22N 49°23' W 123°16'412.2
2018-Apr-19 16:00N 49°25' W 123°21'5 9.1
2018-Apr-19 15:30N 49°26' W 123°28'1 2.7
2018-Apr-19 15:00N 49°25' W 123°27'711.5
2018-Apr-19 14:23N 49°23' W 123°16'0 0.3
2018-Apr-19 14:00N 49°23' W 123°16'714.2
2018-Apr-19 13:28N 49°25' W 123°27'1 1.7
2018-Apr-19 12:47N 49°26' W 123°28'0 0.0
2018-Apr-19 12:30N 49°26' W 123°28'0 0.0
2018-Apr-19 11:54N 49°26' W 123°28'0 0.0
2018-Apr-19 11:30N 49°26' W 123°28'0 0.0
2018-Apr-19 10:57N 49°26' W 123°28'0 0.0
2018-Apr-19 09:51N 49°26' W 123°28'0 0.0
2018-Apr-19 09:30N 49°26' W 123°28'0 0.0
2018-Apr-19 09:00N 49°26' W 123°28'0 0.0
2018-Apr-19 07:57N 49°26' W 123°28'0 0.0
2018-Apr-19 07:27N 49°26' W 123°28'0 0.0
2018-Apr-19 07:00N 49°26' W 123°28'1 1.0
2018-Apr-19 06:30N 49°26' W 123°28'815.0
2018-Apr-19 06:00N 49°24' W 123°17'1 1.7
2018-Apr-19 05:29N 49°23' W 123°16'714.6
2018-Apr-19 05:00N 49°19' W 123°25'918.4
2018-Apr-19 04:30N 49°16' W 123°38'1018.6
2018-Apr-19 03:58N 49°13' W 123°53'2 3.5
2018-Apr-19 03:15N 49°12' W 123°57'416.9
2018-Apr-19 02:59N 49°14' W 123°51'918.4
2018-Apr-19 02:29N 49°17' W 123°37'918.6
2018-Apr-19 02:00N 49°19' W 123°24'6 6.3
2018-Apr-19 01:03N 49°23' W 123°16'113.4
2018-Apr-19 00:57N 49°24' W 123°17'716.4
2018-Apr-19 00:30N 49°26' W 123°27'0 0.2
2018-Apr-18 23:57N 49°26' W 123°27'716.3
2018-Apr-18 23:30N 49°24' W 123°17'1 2.1
2018-Apr-18 23:00N 49°23' W 123°16'510.7
2018-Apr-18 22:30N 49°25' W 123°23'3 6.2
2018-Apr-18 21:57N 49°26' W 123°28'511.2
2018-Apr-18 21:31N 49°25' W 123°21'4 6.8
2018-Apr-18 20:54N 49°23' W 123°16'3 8.6
2018-Apr-18 20:30N 49°26' W 123°18'613.2
2018-Apr-18 20:00N 49°26' W 123°28'1 2.0
2018-Apr-18 19:30N 49°25' W 123°27'8 7.5
2018-Apr-18 18:30N 49°23' W 123°16'715.1
2018-Apr-18 18:01N 49°25' W 123°27'1 2.3
2018-Apr-18 17:30N 49°26' W 123°28'712.8
2018-Apr-18 16:58N 49°25' W 123°18'3 4.9
2018-Apr-18 16:20N 49°23' W 123°16'412.1
2018-Apr-18 15:59N 49°25' W 123°21'510.0
2018-Apr-18 15:30N 49°26' W 123°28'2 3.3
2018-Apr-18 14:59N 49°25' W 123°26'710.5
2018-Apr-18 14:20N 49°23' W 123°16'0 1.0
2018-Apr-18 13:58N 49°23' W 123°16'715.2
2018-Apr-18 13:30N 49°25' W 123°27'2 2.9
2018-Apr-18 12:59N 49°26' W 123°28'0 0.0
2018-Apr-18 11:10N 49°26' W 123°28'0 0.0
2018-Apr-18 10:49N 49°26' W 123°28'0 0.0
2018-Apr-18 10:19N 49°26' W 123°28'0 0.0
2018-Apr-18 09:43N 49°26' W 123°28'0 0.0
2018-Apr-18 09:28N 49°26' W 123°28'0 0.0
2018-Apr-18 08:52N 49°26' W 123°28'0 0.0
2018-Apr-18 08:16N 49°26' W 123°28'0 0.0
2018-Apr-18 07:55N 49°26' W 123°28'0 0.0
2018-Apr-18 07:25N 49°26' W 123°28'0 0.0
2018-Apr-18 06:58N 49°26' W 123°28'1 1.1
2018-Apr-18 06:30N 49°26' W 123°28'814.8
2018-Apr-18 05:59N 49°23' W 123°17'1 1.5
2018-Apr-18 05:30N 49°23' W 123°16'713.9
2018-Apr-18 05:00N 49°19' W 123°25'918.2
2018-Apr-18 04:30N 49°16' W 123°39'1210.1
2018-Apr-18 03:15N 49°12' W 123°57'416.7
2018-Apr-18 02:59N 49°14' W 123°51'918.4
2018-Apr-18 02:30N 49°17' W 123°38'918.5
2018-Apr-18 02:00N 49°19' W 123°24'6 6.3
2018-Apr-18 01:03N 49°23' W 123°16'112.2
2018-Apr-18 00:59N 49°23' W 123°16'714.9
2018-Apr-18 00:31N 49°25' W 123°27'1 2.2
2018-Apr-18 00:00N 49°26' W 123°28'713.9
2018-Apr-17 23:29N 49°25' W 123°17'2 4.7
2018-Apr-17 23:00N 49°23' W 123°16'611.5
2018-Apr-17 22:30N 49°25' W 123°24'3 5.7
2018-Apr-17 22:00N 49°26' W 123°28'510.3
2018-Apr-17 21:30N 49°26' W 123°20'4 4.7
2018-Apr-17 20:42N 49°23' W 123°16'415.2
2018-Apr-17 20:27N 49°26' W 123°20'612.6
2018-Apr-17 20:00N 49°26' W 123°28'0 0.8
2018-Apr-17 19:30N 49°26' W 123°28'815.5
2018-Apr-17 19:00N 49°23' W 123°17'1 1.2
2018-Apr-17 18:28N 49°23' W 123°16'714.8
2018-Apr-17 18:00N 49°25' W 123°26'2 3.7
2018-Apr-17 17:30N 49°26' W 123°28'712.6
2018-Apr-17 16:56N 49°25' W 123°17'2 3.2
2018-Apr-17 16:17N 49°23' W 123°16'414.2
2018-Apr-17 16:00N 49°25' W 123°21'5 9.7
2018-Apr-17 15:30N 49°26' W 123°28'2 3.7
2018-Apr-17 15:00N 49°25' W 123°26'712.4
2018-Apr-17 14:28N 49°23' W 123°16'0 0.1
2018-Apr-17 13:59N 49°23' W 123°16'713.7
2018-Apr-17 13:30N 49°25' W 123°25'2 3.9
2018-Apr-17 13:00N 49°26' W 123°28'0 0.0
2018-Apr-17 12:02N 49°26' W 123°28'0 0.0
2018-Apr-17 11:56N 49°26' W 123°28'0 0.0
2018-Apr-17 11:26N 49°26' W 123°28'0 0.0
2018-Apr-17 10:44N 49°26' W 123°28'0 0.0
2018-Apr-17 10:26N 49°26' W 123°28'0 0.0
2018-Apr-17 09:20N 49°26' W 123°28'0 0.0
2018-Apr-17 08:44N 49°26' W 123°28'0 0.0
2018-Apr-17 08:20N 49°26' W 123°28'0 0.0
2018-Apr-17 07:56N 49°26' W 123°28'0 0.0
2018-Apr-17 07:26N 49°26' W 123°28'0 0.0
2018-Apr-17 06:56N 49°26' W 123°28'0 0.7
2018-Apr-17 06:30N 49°26' W 123°28'815.4
2018-Apr-17 05:59N 49°23' W 123°17'1 1.4
2018-Apr-17 05:30N 49°23' W 123°16'714.3
2018-Apr-17 05:00N 49°19' W 123°25'1018.3
2018-Apr-17 04:29N 49°16' W 123°39'12 9.1
2018-Apr-17 03:13N 49°12' W 123°56'417.6
2018-Apr-17 03:00N 49°14' W 123°51'918.6
2018-Apr-17 02:30N 49°17' W 123°38'918.7
2018-Apr-17 02:01N 49°19' W 123°24'6 7.0
2018-Apr-17 01:10N 49°23' W 123°16'316.0
2018-Apr-17 00:58N 49°26' W 123°18'714.6
2018-Apr-17 00:30N 49°26' W 123°28'1 2.1
2018-Apr-17 00:00N 49°26' W 123°27'7 7.2
2018-Apr-16 22:59N 49°23' W 123°16'816.4
2018-Apr-16 22:30N 49°26' W 123°28'0 0.9
2018-Apr-16 22:00N 49°26' W 123°28'814.0
2018-Apr-16 21:26N 49°24' W 123°17'1 2.4
2018-Apr-16 20:58N 49°23' W 123°16'4 8.3
2018-Apr-16 20:30N 49°26' W 123°20'510.9
2018-Apr-16 20:00N 49°26' W 123°28'1 2.5
2018-Apr-16 19:30N 49°25' W 123°27'710.7
2018-Apr-16 18:49N 49°23' W 123°16'0 0.8
2018-Apr-16 18:31N 49°23' W 123°16'815.4
2018-Apr-16 18:00N 49°26' W 123°27'1 1.4
2018-Apr-16 17:28N 49°26' W 123°28'713.5
2018-Apr-16 16:57N 49°25' W 123°18'2 3.3
2018-Apr-16 16:14N 49°23' W 123°16'415.6
2018-Apr-16 16:00N 49°26' W 123°20'510.3
2018-Apr-16 15:30N 49°26' W 123°28'1 2.7
2018-Apr-16 15:00N 49°25' W 123°27'711.5
2018-Apr-16 14:22N 49°23' W 123°16'0 0.9
2018-Apr-16 13:57N 49°23' W 123°16'715.1
2018-Apr-16 13:30N 49°25' W 123°26'2 3.4
2018-Apr-16 12:59N 49°26' W 123°28'0 0.0
2018-Apr-16 12:16N 49°26' W 123°28'0 0.0
2018-Apr-16 11:46N 49°26' W 123°28'0 0.0
2018-Apr-16 11:22N 49°26' W 123°28'0 0.0
2018-Apr-16 10:58N 49°26' W 123°28'0 0.0
2018-Apr-16 10:25N 49°26' W 123°28'0 0.0
2018-Apr-16 09:58N 49°26' W 123°28'0 0.0
2018-Apr-16 09:16N 49°26' W 123°28'0 0.0
2018-Apr-16 08:55N 49°26' W 123°28'0 0.0
2018-Apr-16 08:28N 49°26' W 123°28'0 0.0
2018-Apr-16 07:55N 49°26' W 123°28'0 0.0
2018-Apr-16 07:22N 49°26' W 123°28'0 0.0
2018-Apr-16 06:57N 49°26' W 123°28'511.7
2018-Apr-16 06:30N 49°26' W 123°20'4 6.5
2018-Apr-16 05:54N 49°23' W 123°16'512.5
2018-Apr-16 05:30N 49°19' W 123°22'1019.9
2018-Apr-16 05:00N 49°16' W 123°36'1220.2
2018-Apr-16 04:24N 49°13' W 123°54'1 1.7
2018-Apr-16 03:33N 49°12' W 123°56'216.1
2018-Apr-16 03:25N 49°13' W 123°54'818.7
2018-Apr-16 02:59N 49°16' W 123°42'918.8
2018-Apr-16 02:30N 49°18' W 123°29'918.2
2018-Apr-16 02:01N 49°23' W 123°17'1 0.8
2018-Apr-16 01:15N 49°23' W 123°16'414.0
2018-Apr-16 00:58N 49°25' W 123°20'510.3
2018-Apr-16 00:29N 49°26' W 123°28'1 2.6
2018-Apr-16 00:00N 49°25' W 123°27'7 9.6
2018-Apr-15 23:14N 49°23' W 123°16'0 0.9
2018-Apr-15 23:00N 49°23' W 123°16'815.9
2018-Apr-15 22:30N 49°26' W 123°27'1 1.2
2018-Apr-15 22:00N 49°26' W 123°28'510.6
2018-Apr-15 21:30N 49°26' W 123°20'4 4.4
2018-Apr-15 20:41N 49°23' W 123°16'415.9
2018-Apr-15 20:25N 49°25' W 123°22'410.7
2018-Apr-15 20:01N 49°26' W 123°28'1 1.9
2018-Apr-15 19:30N 49°26' W 123°27'8 7.7
2018-Apr-15 18:31N 49°23' W 123°16'111.5
2018-Apr-15 18:28N 49°23' W 123°16'816.1
2018-Apr-15 18:00N 49°26' W 123°27'1 1.6
2018-Apr-15 17:30N 49°26' W 123°28'612.2
2018-Apr-15 17:00N 49°26' W 123°19'3 5.1
2018-Apr-15 16:19N 49°23' W 123°16'412.7
2018-Apr-15 15:59N 49°25' W 123°21'510.0
2018-Apr-15 15:30N 49°26' W 123°28'2 3.3
2018-Apr-15 15:00N 49°25' W 123°26'713.0
2018-Apr-15 14:28N 49°23' W 123°16'0 0.1
2018-Apr-15 14:00N 49°23' W 123°16'713.2
2018-Apr-15 13:30N 49°25' W 123°25'2 4.0
2018-Apr-15 13:00N 49°26' W 123°28'0 0.0
2018-Apr-15 12:27N 49°26' W 123°28'0 0.0
2018-Apr-15 11:44N 49°26' W 123°28'0 0.0
2018-Apr-15 11:29N 49°26' W 123°28'0 0.0
2018-Apr-15 10:56N 49°26' W 123°28'0 0.0
2018-Apr-15 09:38N 49°26' W 123°28'0 0.0
2018-Apr-15 09:11N 49°26' W 123°28'0 0.0
2018-Apr-15 08:53N 49°26' W 123°28'0 0.0
2018-Apr-15 08:29N 49°26' W 123°28'0 0.0
2018-Apr-15 07:05N 49°26' W 123°28'0 0.0
2018-Apr-15 06:47N 49°26' W 123°28'1 3.7
2018-Apr-15 06:31N 49°26' W 123°27'713.7
2018-Apr-15 06:00N 49°24' W 123°17'1 1.7
2018-Apr-15 05:28N 49°23' W 123°16'715.7
2018-Apr-15 05:00N 49°19' W 123°25'917.9
2018-Apr-15 04:30N 49°16' W 123°38'918.3
2018-Apr-15 03:59N 49°14' W 123°53'3 4.6
2018-Apr-15 03:15N 49°12' W 123°57'417.9
2018-Apr-15 03:00N 49°14' W 123°51'1019.1
2018-Apr-15 02:30N 49°17' W 123°37'918.6
2018-Apr-15 02:00N 49°19' W 123°23'610.4
2018-Apr-15 01:28N 49°23' W 123°16'1 2.7
2018-Apr-15 00:58N 49°24' W 123°16'816.6
2018-Apr-15 00:30N 49°26' W 123°28'0 0.7
2018-Apr-15 00:00N 49°26' W 123°28'814.2
2018-Apr-14 23:29N 49°24' W 123°17'2 3.0
2018-Apr-14 22:55N 49°23' W 123°16'512.5
2018-Apr-14 22:28N 49°25' W 123°24'3 6.2
2018-Apr-14 21:59N 49°26' W 123°28'4 8.8
2018-Apr-14 21:28N 49°25' W 123°22'4 5.6
2018-Apr-14 20:41N 49°23' W 123°16'316.0
2018-Apr-14 20:30N 49°25' W 123°18'714.1
2018-Apr-14 20:00N 49°26' W 123°28'1 1.5
2018-Apr-14 19:29N 49°26' W 123°27'715.5
2018-Apr-14 19:00N 49°24' W 123°17'1 1.6
2018-Apr-14 18:30N 49°23' W 123°16'714.0
2018-Apr-14 18:00N 49°25' W 123°26'2 3.5
2018-Apr-14 17:30N 49°26' W 123°28'612.4
2018-Apr-14 17:00N 49°26' W 123°19'3 4.9
2018-Apr-14 16:19N 49°23' W 123°16'412.6
2018-Apr-14 16:00N 49°26' W 123°20'5 8.5
2018-Apr-14 15:24N 49°26' W 123°28'2 4.4
2018-Apr-14 15:00N 49°25' W 123°26'712.4
2018-Apr-14 14:27N 49°23' W 123°16'0 0.5
2018-Apr-14 13:59N 49°23' W 123°16'613.2
2018-Apr-14 13:30N 49°25' W 123°25'2 3.3
2018-Apr-14 12:52N 49°26' W 123°28'0 0.0
2018-Apr-14 12:21N 49°26' W 123°28'0 0.0
2018-Apr-14 12:00N 49°26' W 123°28'0 0.0
2018-Apr-14 10:21N 49°26' W 123°28'0 0.0
2018-Apr-14 10:00N 49°26' W 123°28'0 0.0
2018-Apr-14 09:27N 49°26' W 123°28'0 0.0
2018-Apr-14 08:51N 49°26' W 123°28'0 0.0
2018-Apr-14 08:21N 49°26' W 123°28'0 0.0
2018-Apr-14 07:57N 49°26' W 123°28'0 0.0
2018-Apr-14 07:27N 49°26' W 123°28'0 0.0
2018-Apr-14 06:51N 49°26' W 123°28'1 2.8
2018-Apr-14 06:30N 49°26' W 123°27'714.4
2018-Apr-14 06:00N 49°23' W 123°16'0 0.6
2018-Apr-14 05:27N 49°23' W 123°16'715.9
2018-Apr-14 05:00N 49°19' W 123°25'1018.4
2018-Apr-14 04:29N 49°16' W 123°39'1018.5
2018-Apr-14 03:56N 49°13' W 123°54'0 0.2
2018-Apr-14 03:10N 49°13' W 123°54'518.7
2018-Apr-14 02:56N 49°15' W 123°48'818.9
2018-Apr-14 02:30N 49°18' W 123°36'919.1
2018-Apr-14 02:01N 49°20' W 123°22'5 8.0
2018-Apr-14 01:24N 49°23' W 123°16'1 3.0
2018-Apr-14 01:00N 49°24' W 123°16'816.3
2018-Apr-14 00:31N 49°26' W 123°28'0 0.2
2018-Apr-14 00:00N 49°26' W 123°28'815.4
2018-Apr-13 23:29N 49°24' W 123°17'1 1.2
2018-Apr-13 22:53N 49°23' W 123°16'514.0
2018-Apr-13 22:30N 49°25' W 123°24'3 5.5
2018-Apr-13 21:56N 49°26' W 123°28'614.1
2018-Apr-13 21:29N 49°26' W 123°19'3 4.0
2018-Apr-13 20:42N 49°23' W 123°16'414.0
2018-Apr-13 20:26N 49°26' W 123°20'612.8
2018-Apr-13 20:00N 49°26' W 123°28'0 0.6
2018-Apr-13 19:30N 49°26' W 123°28'815.6
2018-Apr-13 19:00N 49°23' W 123°17'1 1.9
2018-Apr-13 18:31N 49°23' W 123°16'714.6
2018-Apr-13 18:00N 49°25' W 123°27'1 2.3
2018-Apr-13 17:30N 49°26' W 123°28'611.9
2018-Apr-13 16:59N 49°26' W 123°19'3 5.3
2018-Apr-13 16:20N 49°23' W 123°16'512.2
2018-Apr-13 15:56N 49°25' W 123°22'4 9.3
2018-Apr-13 15:30N 49°26' W 123°28'2 3.5
2018-Apr-13 14:59N 49°25' W 123°26'7 9.4
2018-Apr-13 14:16N 49°23' W 123°16'0 0.5
2018-Apr-13 13:59N 49°23' W 123°16'713.9
2018-Apr-13 13:30N 49°25' W 123°26'2 3.7
2018-Apr-13 13:00N 49°26' W 123°28'0 0.0
2018-Apr-13 12:27N 49°26' W 123°28'0 0.0
2018-Apr-13 11:13N 49°26' W 123°28'0 0.0
2018-Apr-13 10:58N 49°26' W 123°28'0 0.0
2018-Apr-13 10:07N 49°26' W 123°28'0 0.0
2018-Apr-13 09:52N 49°26' W 123°28'0 0.0
2018-Apr-13 09:28N 49°26' W 123°28'0 0.0
2018-Apr-13 08:58N 49°26' W 123°28'0 0.0
2018-Apr-13 08:28N 49°26' W 123°28'0 0.0
2018-Apr-13 07:58N 49°26' W 123°28'0 0.0
2018-Apr-13 07:28N 49°26' W 123°28'0 0.0
2018-Apr-13 06:55N 49°26' W 123°28'1 2.2
2018-Apr-13 06:30N 49°26' W 123°27'714.3
2018-Apr-13 06:00N 49°23' W 123°17'1 1.5
2018-Apr-13 05:28N 49°23' W 123°16'715.5
2018-Apr-13 05:00N 49°19' W 123°26'1019.5
2018-Apr-13 04:30N 49°15' W 123°40'9 7.4
2018-Apr-13 03:15N 49°14' W 123°54'518.8
2018-Apr-13 02:59N 49°15' W 123°46'918.9
2018-Apr-13 02:30N 49°17' W 123°33'918.5
2018-Apr-13 02:00N 49°21' W 123°20'3 4.0
2018-Apr-13 01:18N 49°23' W 123°16'411.7
2018-Apr-13 00:57N 49°25' W 123°21'510.9
2018-Apr-13 00:30N 49°26' W 123°28'3 6.7
2018-Apr-12 23:59N 49°25' W 123°23'5 6.0
2018-Apr-12 23:07N 49°23' W 123°16'1 4.5
2018-Apr-12 22:59N 49°23' W 123°16'816.0
2018-Apr-12 22:30N 49°26' W 123°27'1 1.3
2018-Apr-12 22:00N 49°26' W 123°28'612.3
2018-Apr-12 21:30N 49°26' W 123°19'4 7.1
2018-Apr-12 21:00N 49°23' W 123°16'4 6.9
2018-Apr-12 20:29N 49°26' W 123°19'612.7
2018-Apr-12 20:00N 49°26' W 123°28'0 0.8
2018-Apr-12 19:30N 49°26' W 123°28'815.8
2018-Apr-12 19:00N 49°23' W 123°17'1 1.1
2018-Apr-12 18:28N 49°23' W 123°16'715.3
2018-Apr-12 18:00N 49°25' W 123°26'1 2.8
2018-Apr-12 17:30N 49°26' W 123°28'712.7
2018-Apr-12 16:58N 49°26' W 123°18'3 4.9
2018-Apr-12 16:19N 49°23' W 123°16'412.7
2018-Apr-12 16:00N 49°26' W 123°20'510.5
2018-Apr-12 15:30N 49°26' W 123°28'2 3.2
2018-Apr-12 15:00N 49°25' W 123°26'710.3
2018-Apr-12 14:20N 49°23' W 123°16'0 1.3
2018-Apr-12 13:57N 49°23' W 123°16'714.3
2018-Apr-12 13:29N 49°25' W 123°26'2 3.8
2018-Apr-12 13:00N 49°26' W 123°28'0 0.1
2018-Apr-12 12:30N 49°26' W 123°28'0 0.0
2018-Apr-12 11:44N 49°26' W 123°28'0 0.0
2018-Apr-12 11:17N 49°26' W 123°28'0 0.0
2018-Apr-12 10:53N 49°26' W 123°28'0 0.0
2018-Apr-12 10:23N 49°26' W 123°28'0 0.0
2018-Apr-12 09:44N 49°26' W 123°28'0 0.0
2018-Apr-12 09:29N 49°26' W 123°28'0 0.0
2018-Apr-12 08:53N 49°26' W 123°28'0 0.0
2018-Apr-12 08:23N 49°26' W 123°28'0 0.0
2018-Apr-12 07:59N 49°26' W 123°28'0 0.0
2018-Apr-12 07:05N 49°26' W 123°28'0 0.0
2018-Apr-12 06:59N 49°26' W 123°28'1 2.1
2018-Apr-12 06:30N 49°26' W 123°27'714.5
2018-Apr-12 06:00N 49°23' W 123°16'0 0.8
2018-Apr-12 05:28N 49°23' W 123°16'714.4
2018-Apr-12 05:00N 49°19' W 123°24'918.4
2018-Apr-12 04:30N 49°16' W 123°38'1018.7
2018-Apr-12 04:00N 49°14' W 123°52'1 1.4
2018-Apr-12 03:07N 49°13' W 123°54'318.1
2018-Apr-12 02:58N 49°14' W 123°50'818.4
2018-Apr-12 02:30N 49°17' W 123°38'1018.5
2018-Apr-12 01:59N 49°19' W 123°23'6 6.5
2018-Apr-12 01:08N 49°23' W 123°16'213.7
2018-Apr-12 01:00N 49°24' W 123°17'815.6
2018-Apr-12 00:30N 49°26' W 123°28'1 1.1
2018-Apr-12 00:00N 49°26' W 123°27'816.0
2018-Apr-11 23:30N 49°23' W 123°16'0 0.2
2018-Apr-11 22:54N 49°23' W 123°16'614.2
2018-Apr-11 22:29N 49°25' W 123°24'3 4.3
2018-Apr-11 21:53N 49°26' W 123°28'615.4
2018-Apr-11 21:29N 49°26' W 123°19'3 3.9
2018-Apr-11 20:40N 49°23' W 123°16'318.2
2018-Apr-11 20:30N 49°25' W 123°18'713.6
2018-Apr-11 20:01N 49°26' W 123°28'1 1.1
2018-Apr-11 19:30N 49°26' W 123°27'8 7.8
2018-Apr-11 18:29N 49°23' W 123°16'714.4
2018-Apr-11 18:00N 49°25' W 123°26'2 3.3
2018-Apr-11 17:30N 49°26' W 123°28'713.6
2018-Apr-11 17:00N 49°26' W 123°18'3 5.0
2018-Apr-11 16:21N 49°23' W 123°16'412.4
2018-Apr-11 16:00N 49°25' W 123°21'5 9.4
2018-Apr-11 15:31N 49°26' W 123°28'2 4.1
2018-Apr-11 14:58N 49°25' W 123°25'6 6.4
2018-Apr-11 13:59N 49°23' W 123°16'613.4
2018-Apr-11 13:30N 49°25' W 123°25'2 2.7
2018-Apr-11 12:45N 49°26' W 123°28'0 0.0
2018-Apr-11 12:15N 49°26' W 123°28'0 0.0
2018-Apr-11 11:48N 49°26' W 123°28'0 0.0
2018-Apr-11 11:27N 49°26' W 123°28'0 0.0
2018-Apr-11 10:54N 49°26' W 123°28'0 0.0
2018-Apr-11 10:27N 49°26' W 123°28'0 0.0
2018-Apr-11 10:00N 49°26' W 123°28'0 0.0
2018-Apr-11 09:00N 49°26' W 123°28'0 0.0
2018-Apr-11 08:27N 49°26' W 123°28'0 0.0
2018-Apr-11 08:00N 49°26' W 123°28'0 0.0
2018-Apr-11 07:24N 49°26' W 123°28'0 0.0
2018-Apr-11 06:57N 49°26' W 123°28'1 1.9
2018-Apr-11 06:30N 49°26' W 123°27'714.7
2018-Apr-11 06:00N 49°23' W 123°16'1 1.1
2018-Apr-11 05:29N 49°23' W 123°16'714.9
2018-Apr-11 05:00N 49°19' W 123°25'918.2
2018-Apr-11 04:30N 49°16' W 123°38'1310.3
2018-Apr-11 03:16N 49°12' W 123°57'517.0
2018-Apr-11 03:00N 49°14' W 123°51'918.6
2018-Apr-11 02:30N 49°17' W 123°38'918.8
2018-Apr-11 02:00N 49°19' W 123°23'6 6.3
2018-Apr-11 01:06N 49°23' W 123°16'110.0
2018-Apr-11 01:00N 49°24' W 123°16'816.0
2018-Apr-11 00:30N 49°26' W 123°28'0 0.3
2018-Apr-11 00:00N 49°26' W 123°28'815.6
2018-Apr-10 23:30N 49°24' W 123°17'1 1.2
2018-Apr-10 22:54N 49°23' W 123°16'613.8
2018-Apr-10 22:29N 49°25' W 123°24'3 4.3
2018-Apr-10 21:52N 49°26' W 123°28'614.5
2018-Apr-10 21:29N 49°26' W 123°20'4 8.2
2018-Apr-10 21:00N 49°23' W 123°16'4 7.3
2018-Apr-10 20:29N 49°26' W 123°20'611.9
2018-Apr-10 20:00N 49°26' W 123°28'1 1.8
2018-Apr-10 19:30N 49°26' W 123°27'715.1
2018-Apr-10 19:00N 49°23' W 123°16'0 0.9
2018-Apr-10 18:30N 49°23' W 123°16'714.7
2018-Apr-10 18:00N 49°25' W 123°27'1 2.4
2018-Apr-10 17:30N 49°26' W 123°28'612.8
2018-Apr-10 17:00N 49°26' W 123°18'3 4.9
2018-Apr-10 16:20N 49°23' W 123°16'412.9
2018-Apr-10 16:00N 49°26' W 123°21'5 9.3
2018-Apr-10 15:29N 49°26' W 123°28'2 3.8
2018-Apr-10 15:00N 49°25' W 123°26'712.3
2018-Apr-10 14:28N 49°23' W 123°16'0 0.2
2018-Apr-10 13:56N 49°23' W 123°16'715.1
2018-Apr-10 13:30N 49°25' W 123°26'2 3.5
2018-Apr-10 12:59N 49°26' W 123°28'0 0.0
2018-Apr-10 12:30N 49°26' W 123°28'0 0.0
2018-Apr-10 11:37N 49°26' W 123°28'0 0.0
2018-Apr-10 10:07N 49°26' W 123°28'0 0.0
2018-Apr-10 09:55N 49°26' W 123°28'0 0.0
2018-Apr-10 09:25N 49°26' W 123°28'0 0.0
2018-Apr-10 08:37N 49°26' W 123°28'0 0.0
2018-Apr-10 08:19N 49°26' W 123°28'0 0.0
2018-Apr-10 07:55N 49°26' W 123°28'0 0.0
2018-Apr-10 07:25N 49°26' W 123°28'  

Dump ship's entire track history